Pagina principală
METAR-TAF:

METAR-TAF

Aeroporturi :

Challis Airport

Challis, Idaho, Statele Unite ale Americii

Latitudine: 44-31-22N, longitudine: 114-12-54W, elevație: 1546 m

Observații meteo curente

Raportul a fost făcut în urmă cu 51 de minute, la 16:55 UTC
Vânt calm
Temperatură 18°C
Umiditate 32%
Presiune 1019 hPa
Vizibilitate: 16.1 km
Cer senin

METAR: KLLJ 281655Z AUTO 00000KT 10SM CLR 18/01 A3010 RMK AO2 SLP145 T01830011

Ora: 11:46 (17:46 UTC)


TAF: lipsă

Observații și prognoze meteo pentru peste 4.000 de aeroporturi (rapoarte METAR și TAF).

Stațiile disponibile sunt reprezentate pe hartă prin puncte galbene și roșii.

Țineți indicatorul mouse-ului pe punctul dorit pentru a vedea denumirea stației.

Apoi, faceți clic pentru a vedea observațiile și prognozele meteorologice.

Pentru a schimba harta: Pentru mărire, faceți clic pe butoanele verzi cu cruce neagră; pentru micșorare, pe butonul verde cu o liniuță; pentru hărți învecinate, pe săgețile verzi.


METAR-TAF: